Time;durP1;ratioP1;P1;durP2;ratioP2;P2;SDS_P1;SDS_P2;PMS_P1;PMS_P2;Temp;Humidity;BMP_temperature;BMP_pressure;BME280_temperature;BME280_humidity;BME280_pressure;Samples;Min_cycle;Max_cycle;Signal;HPM_P1;HPM_P2
2022/03/16 00:01:11;;;;;;;82.05;51.33;;;;;;;;;;5029119;28;20048;-62
2022/03/16 00:03:37;;;;;;;84.82;57.55;;;;;;;;;;5030684;28;20037;-62
2022/03/16 00:06:03;;;;;;;90.60;61.03;;;;;;;;;;5030778;28;20045;-62
2022/03/16 00:08:29;;;;;;;84.63;54.47;;;;;;;;;;5027499;28;20045;-61
2022/03/16 00:11:01;;;;;;;84.13;50.97;;;;;;;;;;5028966;28;20466;-62
2022/03/16 00:13:27;;;;;;;86.85;56.20;;;;;;;;;;5025854;28;20072;-59
2022/03/16 00:15:53;;;;;;;72.35;47.00;;;;;;;;;;5045786;28;20407;-61
2022/03/16 00:18:19;;;;;;;83.43;54.95;;;;;;;;;;5030319;28;20042;-61
2022/03/16 00:20:48;;;;;;;84.35;55.53;;;;;;;;;;5030819;28;20034;-60
2022/03/16 00:23:14;;;;;;;100.35;66.25;;;;;;;;;;5028881;28;20085;-60
2022/03/16 00:25:40;;;;;;;109.57;81.13;;;;;;;;;;5030032;28;20490;-61
2022/03/16 00:28:06;;;;;;;121.90;88.75;;;;;;;;;;5011925;28;20075;-60
2022/03/16 00:30:32;;;;;;;113.25;86.57;;;;;;;;;;5030719;28;20029;-60
2022/03/16 00:32:58;;;;;;;115.28;86.65;;;;;;;;;;5030358;28;20127;-59
2022/03/16 00:35:24;;;;;;;134.23;104.18;;;;;;;;;;5030387;28;20052;-60
2022/03/16 00:37:51;;;;;;;147.93;119.43;;;;;;;;;;5028270;28;20049;-60
2022/03/16 00:40:17;;;;;;;126.82;102.22;;;;;;;;;;5030330;28;20026;-61
2022/03/16 00:42:43;;;;;;;124.95;101.45;;;;;;;;;;5030152;28;20403;-61
2022/03/16 00:45:09;;;;;;;104.07;78.78;;;;;;;;;;5029808;28;20065;-60
2022/03/16 00:47:35;;;;;;;97.22;74.13;;;;;;;;;;5029604;28;20045;-62
2022/03/16 00:50:01;;;;;;;88.63;68.47;;;;;;;;;;5028851;28;20045;-62
2022/03/16 00:52:27;;;;;;;95.30;67.45;;;;;;;;;;5028539;28;20049;-62
2022/03/16 00:54:53;;;;;;;101.28;76.13;;;;;;;;;;5027111;28;20060;-62
2022/03/16 00:57:19;;;;;;;108.22;87.28;;;;;;;;;;5027435;28;20049;-63
2022/03/16 00:59:45;;;;;;;109.15;90.35;;;;;;;;;;5028187;28;20041;-61
2022/03/16 01:02:11;;;;;;;115.60;92.60;;;;;;;;;;5029051;28;20040;-61
2022/03/16 01:04:38;;;;;;;104.20;77.55;;;;;;;;;;5028815;28;20516;-62
2022/03/16 01:07:04;;;;;;;88.78;67.07;;;;;;;;;;5028425;28;20041;-63
2022/03/16 01:09:30;;;;;;;93.90;66.80;;;;;;;;;;5028058;28;20447;-61
2022/03/16 01:11:56;;;;;;;122.53;91.45;;;;;;;;;;5027470;28;20038;-60
2022/03/16 01:14:22;;;;;;;107.85;81.72;;;;;;;;;;5027946;28;20140;-61
2022/03/16 01:16:48;;;;;;;127.43;97.80;;;;;;;;;;5027453;28;20065;-61
2022/03/16 01:19:15;;;;;;;105.65;78.55;;;;;;;;;;5028184;28;20075;-61
2022/03/16 01:21:44;;;;;;;82.07;55.80;;;;;;;;;;5026445;28;20040;-61
2022/03/16 01:24:10;;;;;;;68.00;46.53;;;;;;;;;;5009573;28;20057;-61
2022/03/16 01:26:37;;;;;;;63.40;42.00;;;;;;;;;;5027259;28;20045;-61
2022/03/16 01:29:03;;;;;;;66.70;41.50;;;;;;;;;;5027930;28;20519;-61
2022/03/16 01:31:29;;;;;;;63.95;41.30;;;;;;;;;;5027014;28;20095;-61
2022/03/16 01:33:55;;;;;;;66.13;44.45;;;;;;;;;;5027993;28;20042;-61
2022/03/16 01:36:21;;;;;;;72.47;44.55;;;;;;;;;;5026756;28;20042;-61
2022/03/16 01:38:47;;;;;;;56.30;37.78;;;;;;;;;;5026388;28;20076;-61
2022/03/16 01:41:14;;;;;;;63.67;38.65;;;;;;;;;;5026591;28;20042;-62
2022/03/16 01:43:40;;;;;;;59.83;38.92;;;;;;;;;;5026799;28;20037;-61
2022/03/16 01:46:06;;;;;;;60.53;40.15;;;;;;;;;;5026226;28;20045;-60
2022/03/16 01:48:32;;;;;;;61.03;39.80;;;;;;;;;;5029259;28;20110;-62
2022/03/16 01:50:59;;;;;;;64.07;41.67;;;;;;;;;;5028209;28;20050;-60
2022/03/16 01:53:26;;;;;;;58.63;39.17;;;;;;;;;;5028452;28;20045;-61
2022/03/16 01:55:52;;;;;;;61.15;41.90;;;;;;;;;;5026216;28;20041;-62
2022/03/16 01:58:18;;;;;;;69.38;48.10;;;;;;;;;;5026944;28;20073;-63
2022/03/16 02:00:44;;;;;;;88.53;64.05;;;;;;;;;;5027198;28;20033;-63
2022/03/16 02:03:11;;;;;;;90.85;70.57;;;;;;;;;;5026703;28;20095;-62
2022/03/16 02:05:37;;;;;;;119.40;95.95;;;;;;;;;;5028389;28;20510;-61
2022/03/16 02:08:05;;;;;;;118.05;101.55;;;;;;;;;;5028229;28;20128;-63
2022/03/16 02:10:31;;;;;;;126.80;103.65;;;;;;;;;;5026601;28;20135;-62
2022/03/16 02:12:58;;;;;;;113.03;89.72;;;;;;;;;;5024621;28;20065;-62
2022/03/16 02:15:24;;;;;;;119.65;89.10;;;;;;;;;;5026493;28;20547;-61
2022/03/16 02:17:53;;;;;;;113.30;87.63;;;;;;;;;;5026006;28;20053;-61
2022/03/16 02:20:19;;;;;;;131.73;101.75;;;;;;;;;;5026232;28;20099;-63
2022/03/16 02:22:50;;;;;;;136.98;109.35;;;;;;;;;;5027797;28;20061;-61
2022/03/16 02:25:16;;;;;;;127.07;98.10;;;;;;;;;;5027643;28;20075;-62
2022/03/16 02:27:42;;;;;;;108.82;82.43;;;;;;;;;;5027788;28;20045;-62
2022/03/16 02:30:09;;;;;;;86.38;61.13;;;;;;;;;;5027421;28;20033;-62
2022/03/16 02:32:35;;;;;;;70.28;46.38;;;;;;;;;;5028265;28;20034;-61
2022/03/16 02:35:02;;;;;;;67.40;42.50;;;;;;;;;;5027451;28;20049;-62
2022/03/16 02:37:28;;;;;;;68.38;41.53;;;;;;;;;;5026275;28;20040;-63
2022/03/16 02:39:55;;;;;;;63.33;39.67;;;;;;;;;;5025901;28;20037;-62
2022/03/16 02:42:21;;;;;;;59.88;39.17;;;;;;;;;;5027928;28;20045;-62
2022/03/16 02:44:47;;;;;;;67.53;41.13;;;;;;;;;;5025742;28;20041;-64
2022/03/16 02:47:13;;;;;;;63.63;41.75;;;;;;;;;;5025831;28;20047;-62
2022/03/16 02:49:40;;;;;;;67.40;40.63;;;;;;;;;;5025606;28;20052;-61
2022/03/16 02:52:09;;;;;;;68.63;43.33;;;;;;;;;;5027125;28;20044;-62
2022/03/16 02:54:35;;;;;;;69.75;41.35;;;;;;;;;;5026830;28;20067;-62
2022/03/16 02:57:01;;;;;;;71.00;43.03;;;;;;;;;;5025458;28;20144;-64
2022/03/16 02:59:28;;;;;;;73.25;43.05;;;;;;;;;;5027203;28;20053;-61
2022/03/16 03:01:54;;;;;;;69.85;42.13;;;;;;;;;;5025640;28;20069;-62
2022/03/16 03:04:20;;;;;;;77.43;45.55;;;;;;;;;;5026238;28;20480;-62
2022/03/16 03:06:46;;;;;;;89.45;49.90;;;;;;;;;;5027392;28;20037;-61
2022/03/16 03:09:12;;;;;;;75.18;46.22;;;;;;;;;;5027720;28;20109;-61
2022/03/16 03:11:40;;;;;;;75.30;45.65;;;;;;;;;;5027339;28;20044;-61
2022/03/16 03:14:06;;;;;;;79.55;45.60;;;;;;;;;;5025766;28;20123;-61
2022/03/16 03:16:32;;;;;;;76.38;47.55;;;;;;;;;;5026343;28;20427;-61
2022/03/16 03:18:58;;;;;;;69.45;41.67;;;;;;;;;;5007381;28;20508;-62
2022/03/16 03:21:24;;;;;;;74.40;44.90;;;;;;;;;;5024992;28;20083;-62
2022/03/16 03:23:50;;;;;;;78.85;46.63;;;;;;;;;;5025528;28;20057;-62
2022/03/16 03:26:16;;;;;;;79.70;47.30;;;;;;;;;;5028170;28;20085;-61
2022/03/16 03:28:42;;;;;;;84.68;48.17;;;;;;;;;;5029255;28;20300;-62
2022/03/16 03:31:08;;;;;;;97.80;66.45;;;;;;;;;;5030647;28;20557;-62
2022/03/16 03:33:34;;;;;;;113.10;75.60;;;;;;;;;;5029575;28;20076;-62
2022/03/16 03:36:00;;;;;;;96.43;61.97;;;;;;;;;;5030184;28;20030;-62
2022/03/16 03:38:26;;;;;;;86.85;52.13;;;;;;;;;;5011138;28;20070;-62
2022/03/16 03:40:52;;;;;;;87.05;51.58;;;;;;;;;;5030050;28;20558;-62
2022/03/16 03:43:18;;;;;;;99.40;58.42;;;;;;;;;;5031133;28;20049;-62
2022/03/16 03:45:45;;;;;;;97.97;57.05;;;;;;;;;;5029121;28;20132;-62
2022/03/16 03:48:11;;;;;;;97.35;59.35;;;;;;;;;;5046172;28;20099;-63
2022/03/16 03:50:37;;;;;;;108.78;68.15;;;;;;;;;;5012946;28;20180;-61
2022/03/16 03:53:03;;;;;;;105.95;60.70;;;;;;;;;;5030699;28;20049;-61
2022/03/16 03:55:29;;;;;;;97.80;56.53;;;;;;;;;;5029060;28;20450;-62
2022/03/16 03:57:57;;;;;;;79.32;47.92;;;;;;;;;;5028380;28;20427;-62
2022/03/16 04:00:24;;;;;;;86.40;51.78;;;;;;;;;;5027998;28;20037;-62
2022/03/16 04:02:50;;;;;;;90.25;52.08;;;;;;;;;;5029274;28;20042;-62
2022/03/16 04:05:19;;;;;;;99.95;59.25;;;;;;;;;;5030171;28;20049;-61
2022/03/16 04:07:48;;;;;;;94.20;53.58;;;;;;;;;;5027066;28;20036;-62
2022/03/16 04:10:14;;;;;;;98.97;56.50;;;;;;;;;;5029179;28;20060;-61
2022/03/16 04:12:40;;;;;;;114.10;65.10;;;;;;;;;;5028335;28;20508;-63
2022/03/16 04:15:06;;;;;;;119.35;72.70;;;;;;;;;;5029649;28;20130;-61
2022/03/16 04:17:32;;;;;;;128.60;75.18;;;;;;;;;;5028941;28;20092;-61
2022/03/16 04:19:58;;;;;;;143.27;86.32;;;;;;;;;;5029916;28;20033;-62
2022/03/16 04:22:28;;;;;;;128.43;77.78;;;;;;;;;;5028977;28;20126;-64
2022/03/16 04:24:55;;;;;;;121.32;72.63;;;;;;;;;;5030875;28;20144;-63
2022/03/16 04:27:21;;;;;;;106.10;62.50;;;;;;;;;;5029089;28;20084;-63
2022/03/16 04:29:47;;;;;;;91.05;55.38;;;;;;;;;;5030411;28;20041;-62
2022/03/16 04:32:13;;;;;;;86.35;51.63;;;;;;;;;;5026924;28;20042;-61
2022/03/16 04:34:40;;;;;;;85.45;52.70;;;;;;;;;;5028043;28;20100;-61
2022/03/16 04:37:06;;;;;;;100.63;59.38;;;;;;;;;;5027523;28;20045;-61
2022/03/16 04:39:32;;;;;;;88.53;53.22;;;;;;;;;;5028875;28;20041;-61
2022/03/16 04:41:58;;;;;;;97.65;58.22;;;;;;;;;;5026998;28;20040;-62
2022/03/16 04:44:24;;;;;;;121.13;66.63;;;;;;;;;;5028789;28;20565;-62
2022/03/16 04:46:50;;;;;;;90.65;53.67;;;;;;;;;;5028011;28;20040;-62
2022/03/16 04:49:16;;;;;;;175.95;115.97;;;;;;;;;;5029393;28;20071;-61
2022/03/16 04:51:43;;;;;;;152.40;99.38;;;;;;;;;;5027038;28;20045;-61
2022/03/16 04:54:09;;;;;;;135.02;84.78;;;;;;;;;;5010366;28;20487;-62
2022/03/16 04:56:35;;;;;;;116.88;71.80;;;;;;;;;;5011260;28;20124;-63
2022/03/16 04:59:04;;;;;;;89.40;52.38;;;;;;;;;;5029123;28;20084;-62
2022/03/16 05:01:31;;;;;;;85.88;50.35;;;;;;;;;;5026761;28;20128;-61
2022/03/16 05:03:57;;;;;;;93.07;53.40;;;;;;;;;;5026709;28;20041;-61
2022/03/16 05:06:23;;;;;;;108.32;62.05;;;;;;;;;;5028205;28;20041;-61
2022/03/16 05:08:50;;;;;;;113.20;70.15;;;;;;;;;;5028062;28;20039;-62
2022/03/16 05:11:16;;;;;;;116.03;72.25;;;;;;;;;;5028181;28;20045;-61
2022/03/16 05:13:43;;;;;;;126.70;77.65;;;;;;;;;;5025582;28;20552;-62
2022/03/16 05:16:09;;;;;;;124.43;73.50;;;;;;;;;;5027282;28;20107;-61
2022/03/16 05:18:36;;;;;;;99.47;59.58;;;;;;;;;;5010199;28;20128;-61
2022/03/16 05:21:08;;;;;;;86.75;52.15;;;;;;;;;;5028204;28;20084;-61
2022/03/16 05:23:34;;;;;;;75.50;44.90;;;;;;;;;;5026360;28;20085;-62
2022/03/16 05:26:00;;;;;;;52.95;30.42;;;;;;;;;;5028611;28;20050;-60
2022/03/16 05:28:26;;;;;;;74.25;45.40;;;;;;;;;;5027837;28;20041;-60
2022/03/16 05:30:52;;;;;;;56.42;33.47;;;;;;;;;;5026245;28;20045;-59
2022/03/16 05:33:18;;;;;;;54.70;31.77;;;;;;;;;;5029102;28;20033;-59
2022/03/16 05:35:44;;;;;;;72.10;41.17;;;;;;;;;;5028761;28;20119;-61
2022/03/16 05:38:14;;;;;;;79.30;48.35;;;;;;;;;;5028425;28;20095;-60
2022/03/16 05:40:41;;;;;;;52.28;30.67;;;;;;;;;;5028975;28;20083;-61
2022/03/16 05:43:08;;;;;;;60.80;37.80;;;;;;;;;;5027090;28;20094;-60
2022/03/16 05:45:34;;;;;;;66.50;38.63;;;;;;;;;;5010425;28;20037;-60
2022/03/16 05:48:00;;;;;;;71.72;42.53;;;;;;;;;;5009917;28;20052;-61
2022/03/16 05:50:28;;;;;;;57.85;31.75;;;;;;;;;;5028093;28;20049;-60
2022/03/16 05:52:58;;;;;;;59.42;35.25;;;;;;;;;;5027426;28;20080;-60
2022/03/16 05:55:24;;;;;;;83.15;49.15;;;;;;;;;;5027432;28;20037;-59
2022/03/16 05:57:50;;;;;;;55.83;34.95;;;;;;;;;;5026865;28;20067;-60
2022/03/16 06:00:17;;;;;;;73.95;41.58;;;;;;;;;;5028430;28;20443;-60
2022/03/16 06:02:46;;;;;;;57.15;33.40;;;;;;;;;;5027987;28;20042;-62
2022/03/16 06:05:13;;;;;;;77.85;45.60;;;;;;;;;;5025406;28;20093;-60
2022/03/16 06:07:39;;;;;;;88.97;53.92;;;;;;;;;;5025555;28;20049;-61
2022/03/16 06:10:06;;;;;;;78.80;44.45;;;;;;;;;;5027737;28;20438;-60
2022/03/16 06:12:32;;;;;;;59.22;36.28;;;;;;;;;;5028693;28;20471;-61
2022/03/16 06:14:58;;;;;;;73.25;42.72;;;;;;;;;;5027891;28;20162;-60
2022/03/16 06:17:24;;;;;;;87.40;49.78;;;;;;;;;;5026748;28;20076;-60
2022/03/16 06:19:50;;;;;;;70.78;40.83;;;;;;;;;;5027617;28;20456;-60
2022/03/16 06:22:16;;;;;;;83.90;49.35;;;;;;;;;;5026143;28;20033;-60
2022/03/16 06:24:42;;;;;;;89.47;51.15;;;;;;;;;;5026348;28;20641;-60
2022/03/16 06:27:08;;;;;;;91.32;52.20;;;;;;;;;;5026750;28;20041;-60
2022/03/16 06:29:34;;;;;;;78.13;46.28;;;;;;;;;;5027373;28;20121;-60
2022/03/16 06:32:00;;;;;;;94.65;55.08;;;;;;;;;;5027841;28;20087;-62
2022/03/16 06:34:27;;;;;;;91.55;54.53;;;;;;;;;;5028589;28;20069;-63
2022/03/16 06:36:53;;;;;;;98.20;56.58;;;;;;;;;;5027893;28;20442;-60
2022/03/16 06:39:19;;;;;;;91.70;52.40;;;;;;;;;;5026177;28;20519;-60
2022/03/16 06:41:45;;;;;;;94.47;52.25;;;;;;;;;;5026271;28;20041;-61
2022/03/16 06:44:11;;;;;;;97.72;57.72;;;;;;;;;;5026090;28;20148;-61
2022/03/16 06:46:37;;;;;;;89.53;51.80;;;;;;;;;;5026546;28;20396;-61
2022/03/16 06:49:04;;;;;;;87.93;50.20;;;;;;;;;;5025864;28;20041;-60
2022/03/16 06:51:30;;;;;;;82.22;47.13;;;;;;;;;;5027906;28;20033;-60
2022/03/16 06:53:56;;;;;;;74.68;41.58;;;;;;;;;;5025792;28;20041;-60
2022/03/16 06:56:22;;;;;;;88.70;47.70;;;;;;;;;;5027364;28;20545;-61
2022/03/16 06:58:49;;;;;;;65.82;38.53;;;;;;;;;;5027423;28;20033;-60
2022/03/16 07:01:15;;;;;;;81.80;47.55;;;;;;;;;;5025889;28;20045;-60
2022/03/16 07:03:43;;;;;;;79.22;46.75;;;;;;;;;;5026855;28;20033;-61
2022/03/16 07:06:10;;;;;;;90.10;52.60;;;;;;;;;;5023570;28;20403;-60
2022/03/16 07:08:36;;;;;;;98.63;57.65;;;;;;;;;;5027499;28;20846;-61
2022/03/16 07:11:02;;;;;;;110.57;67.05;;;;;;;;;;5026688;28;20050;-60
2022/03/16 07:13:29;;;;;;;137.93;83.78;;;;;;;;;;5026766;28;20095;-61
2022/03/16 07:15:55;;;;;;;141.10;87.97;;;;;;;;;;5025523;28;20033;-60
2022/03/16 07:18:23;;;;;;;147.75;90.35;;;;;;;;;;5026072;28;20045;-60
2022/03/16 07:20:49;;;;;;;136.80;81.32;;;;;;;;;;5025861;28;20084;-60
2022/03/16 07:23:17;;;;;;;114.20;62.88;;;;;;;;;;5027298;28;20049;-60
2022/03/16 07:25:47;;;;;;;119.70;70.35;;;;;;;;;;5026013;28;20052;-61
2022/03/16 07:28:13;;;;;;;151.15;93.43;;;;;;;;;;5027059;28;20046;-60
2022/03/16 07:30:40;;;;;;;155.60;99.10;;;;;;;;;;5027547;28;20037;-60
2022/03/16 07:33:06;;;;;;;145.25;92.28;;;;;;;;;;5009311;28;20042;-60
2022/03/16 07:35:33;;;;;;;123.70;75.63;;;;;;;;;;5026050;28;20053;-60
2022/03/16 07:38:02;;;;;;;76.57;44.40;;;;;;;;;;5025455;28;20112;-60
2022/03/16 07:40:30;;;;;;;70.43;43.47;;;;;;;;;;5027551;28;20357;-60
2022/03/16 07:42:56;;;;;;;78.80;47.67;;;;;;;;;;5029234;28;20466;-59
2022/03/16 07:45:23;;;;;;;75.53;45.17;;;;;;;;;;5027171;28;20046;-61
2022/03/16 07:47:50;;;;;;;80.53;49.08;;;;;;;;;;5028120;28;20130;-60
2022/03/16 07:50:16;;;;;;;66.70;42.40;;;;;;;;;;5027814;28;20096;-60
2022/03/16 07:52:43;;;;;;;73.35;43.30;;;;;;;;;;5027965;28;20079;-59
2022/03/16 07:55:10;;;;;;;73.60;45.72;;;;;;;;;;5026528;28;20425;-59
2022/03/16 07:57:39;;;;;;;71.60;44.92;;;;;;;;;;5039205;28;20050;-60
2022/03/16 08:00:06;;;;;;;65.03;42.97;;;;;;;;;;5026002;28;20144;-59
2022/03/16 08:02:32;;;;;;;73.22;48.45;;;;;;;;;;5026916;28;20514;-60
2022/03/16 08:05:00;;;;;;;102.57;72.82;;;;;;;;;;5026273;28;20100;-60
2022/03/16 08:07:29;;;;;;;140.60;100.78;;;;;;;;;;5027089;28;20053;-59
2022/03/16 08:09:56;;;;;;;131.10;98.45;;;;;;;;;;5027189;28;20503;-60
2022/03/16 08:12:22;;;;;;;129.82;94.32;;;;;;;;;;5028497;28;20052;-60
2022/03/16 08:14:50;;;;;;;102.55;78.20;;;;;;;;;;5031719;28;20041;-60
2022/03/16 08:17:16;;;;;;;89.80;61.90;;;;;;;;;;5045304;28;20053;-61
2022/03/16 08:19:42;;;;;;;79.72;59.20;;;;;;;;;;5030179;28;20063;-61
2022/03/16 08:22:08;;;;;;;69.25;49.38;;;;;;;;;;5029673;28;20513;-60
2022/03/16 08:24:34;;;;;;;61.65;44.30;;;;;;;;;;5030946;28;20052;-60
2022/03/16 08:27:00;;;;;;;64.97;48.67;;;;;;;;;;5030918;28;21534;-59
2022/03/16 08:29:26;;;;;;;72.75;58.08;;;;;;;;;;5029755;28;20045;-60
2022/03/16 08:31:53;;;;;;;52.92;38.85;;;;;;;;;;5029368;28;20308;-61
2022/03/16 08:34:19;;;;;;;49.10;35.65;;;;;;;;;;5028770;28;20569;-61
2022/03/16 08:36:45;;;;;;;45.03;31.52;;;;;;;;;;5027613;28;20103;-61
2022/03/16 08:39:11;;;;;;;42.08;30.48;;;;;;;;;;5030226;28;20128;-62
2022/03/16 08:41:37;;;;;;;46.63;34.95;;;;;;;;;;5029609;28;20350;-62
2022/03/16 08:44:04;;;;;;;40.83;30.83;;;;;;;;;;5027379;28;20111;-62
2022/03/16 08:46:30;;;;;;;48.35;34.55;;;;;;;;;;5028490;28;20421;-60
2022/03/16 08:48:56;;;;;;;38.85;29.27;;;;;;;;;;5028948;28;20034;-62
2022/03/16 08:51:22;;;;;;;38.05;28.05;;;;;;;;;;5028750;28;20102;-61
2022/03/16 08:53:49;;;;;;;41.92;29.35;;;;;;;;;;5029272;28;20186;-61
2022/03/16 08:56:16;;;;;;;43.58;31.90;;;;;;;;;;5028584;28;20037;-63
2022/03/16 08:58:43;;;;;;;41.28;28.88;;;;;;;;;;5029732;28;20285;-62
2022/03/16 09:01:09;;;;;;;39.95;29.20;;;;;;;;;;5027189;28;20060;-62
2022/03/16 09:03:36;;;;;;;37.90;25.15;;;;;;;;;;5028116;28;20041;-61
2022/03/16 09:06:02;;;;;;;40.78;30.25;;;;;;;;;;5012117;28;20045;-61
2022/03/16 09:08:29;;;;;;;45.97;33.45;;;;;;;;;;5030992;28;20041;-61
2022/03/16 09:10:57;;;;;;;43.25;33.33;;;;;;;;;;5030400;28;20045;-61
2022/03/16 09:13:23;;;;;;;40.63;29.77;;;;;;;;;;5031314;28;20065;-62
2022/03/16 09:15:51;;;;;;;43.33;33.33;;;;;;;;;;5029564;28;20049;-61
2022/03/16 09:18:18;;;;;;;42.92;31.83;;;;;;;;;;5031064;28;20129;-62
2022/03/16 09:20:44;;;;;;;47.42;35.03;;;;;;;;;;5029570;28;20029;-61
2022/03/16 09:23:11;;;;;;;42.38;31.58;;;;;;;;;;5029457;28;20487;-62
2022/03/16 09:25:38;;;;;;;42.72;32.40;;;;;;;;;;5030964;28;20053;-62
2022/03/16 09:28:04;;;;;;;40.13;29.35;;;;;;;;;;5029889;28;20049;-61
2022/03/16 09:30:30;;;;;;;49.47;37.45;;;;;;;;;;5029538;28;20668;-63
2022/03/16 09:32:57;;;;;;;48.92;35.83;;;;;;;;;;5031186;28;20629;-62
2022/03/16 09:35:24;;;;;;;43.50;32.55;;;;;;;;;;5030710;28;20045;-61
2022/03/16 09:37:50;;;;;;;44.95;32.50;;;;;;;;;;5030492;28;20037;-61
2022/03/16 09:40:17;;;;;;;45.42;34.17;;;;;;;;;;5029591;28;20045;-62
2022/03/16 09:42:43;;;;;;;41.20;33.05;;;;;;;;;;5030674;28;20045;-62
2022/03/16 09:45:13;;;;;;;43.25;33.88;;;;;;;;;;5029351;28;20041;-62
2022/03/16 09:47:39;;;;;;;46.13;34.40;;;;;;;;;;5030300;28;20044;-62
2022/03/16 09:50:05;;;;;;;39.72;31.27;;;;;;;;;;5030592;28;20037;-62
2022/03/16 09:52:31;;;;;;;42.65;32.92;;;;;;;;;;5029310;28;20340;-62
2022/03/16 09:54:58;;;;;;;41.65;32.20;;;;;;;;;;5030390;28;20044;-62
2022/03/16 09:57:24;;;;;;;40.55;32.42;;;;;;;;;;5028969;28;20507;-62
2022/03/16 09:59:51;;;;;;;41.33;32.80;;;;;;;;;;5030105;28;20618;-62
2022/03/16 10:02:17;;;;;;;42.85;32.72;;;;;;;;;;5028794;28;20050;-62
2022/03/16 10:04:46;;;;;;;42.28;32.53;;;;;;;;;;5028935;28;20043;-62
2022/03/16 10:07:12;;;;;;;41.55;31.30;;;;;;;;;;5030071;28;20053;-61
2022/03/16 10:15:14;;;;;;;46.40;35.10;;;;;;;;;;5028675;28;20144;-62
2022/03/16 10:17:45;;;;;;;44.95;36.35;;;;;;;;;;5029636;28;20045;-62
2022/03/16 10:20:14;;;;;;;44.50;35.67;;;;;;;;;;5030020;28;20080;-62
2022/03/16 10:22:41;;;;;;;44.30;34.22;;;;;;;;;;5028266;28;20521;-62
2022/03/16 10:25:08;;;;;;;43.40;34.08;;;;;;;;;;5011973;28;20048;-62
2022/03/16 10:27:38;;;;;;;44.63;33.17;;;;;;;;;;5028298;28;20123;-62
2022/03/16 10:30:05;;;;;;;43.40;34.05;;;;;;;;;;5028435;28;20076;-62
2022/03/16 10:32:32;;;;;;;38.58;30.08;;;;;;;;;;5028139;28;20075;-61
2022/03/16 10:35:05;;;;;;;37.65;28.95;;;;;;;;;;5028271;28;20046;-62
2022/03/16 10:37:32;;;;;;;42.38;35.25;;;;;;;;;;5028246;28;20060;-62
2022/03/16 10:39:58;;;;;;;41.40;32.85;;;;;;;;;;5012153;28;20041;-61
2022/03/16 10:48:16;;;;;;;40.75;33.53;;;;;;;;;;5028115;28;20056;-62
2022/03/16 10:50:43;;;;;;;39.80;32.05;;;;;;;;;;5011661;28;20052;-61
2022/03/16 10:53:10;;;;;;;37.00;30.88;;;;;;;;;;5029525;28;20048;-62
2022/03/16 10:55:37;;;;;;;37.28;30.17;;;;;;;;;;5027847;28;20060;-62
2022/03/16 10:58:06;;;;;;;32.53;25.17;;;;;;;;;;5027965;28;20049;-62
2022/03/16 11:00:33;;;;;;;34.95;28.98;;;;;;;;;;5029414;28;20495;-61
2022/03/16 11:03:01;;;;;;;34.47;27.60;;;;;;;;;;5029215;28;20041;-62
2022/03/16 11:05:27;;;;;;;31.77;25.35;;;;;;;;;;5029379;28;20049;-62
2022/03/16 11:07:54;;;;;;;34.20;28.02;;;;;;;;;;5029329;28;20492;-62
2022/03/16 11:10:20;;;;;;;27.58;20.27;;;;;;;;;;5029376;28;20049;-62
2022/03/16 11:15:32;;;;;;;29.00;20.85;;;;;;;;;;5029048;28;20045;-62
2022/03/16 11:17:58;;;;;;;27.20;23.50;;;;;;;;;;5027788;28;20052;-62
2022/03/16 11:20:24;;;;;;;26.15;20.38;;;;;;;;;;5029201;28;20044;-62
2022/03/16 11:26:03;;;;;;;22.80;17.35;;;;;;;;;;5027946;28;20045;-62
2022/03/16 11:29:08;;;;;;;22.02;15.88;;;;;;;;;;5029320;28;20049;-61
2022/03/16 11:31:34;;;;;;;22.17;16.85;;;;;;;;;;5006858;28;20042;-62
2022/03/16 11:34:10;;;;;;;25.63;20.08;;;;;;;;;;5006835;28;20088;-62
2022/03/16 11:36:40;;;;;;;30.52;21.58;;;;;;;;;;5009201;28;20507;-61
2022/03/16 11:39:14;;;;;;;27.13;21.48;;;;;;;;;;5027820;28;20042;-62
2022/03/16 11:41:47;;;;;;;24.67;19.52;;;;;;;;;;5029373;28;20042;-62
2022/03/16 11:44:25;;;;;;;23.48;19.17;;;;;;;;;;5029458;28;20033;-62
2022/03/16 11:47:13;;;;;;;19.50;13.30;;;;;;;;;;5031809;28;20037;-63
2022/03/16 11:49:42;;;;;;;24.08;21.00;;;;;;;;;;5025035;28;20064;-62
2022/03/16 11:52:09;;;;;;;22.83;19.15;;;;;;;;;;5033663;28;20395;-62
2022/03/16 11:54:41;;;;;;;25.40;18.25;;;;;;;;;;5030527;28;20099;-62
2022/03/16 11:57:09;;;;;;;23.47;16.97;;;;;;;;;;5031479;28;20266;-62
2022/03/16 11:59:40;;;;;;;19.85;15.48;;;;;;;;;;5014638;28;20045;-62
2022/03/16 12:02:22;;;;;;;16.95;13.75;;;;;;;;;;5033294;28;20049;-62
2022/03/16 12:04:50;;;;;;;18.33;14.35;;;;;;;;;;5030140;28;20040;-62
2022/03/16 12:07:17;;;;;;;17.60;13.90;;;;;;;;;;5030145;28;20053;-62
2022/03/16 12:09:51;;;;;;;13.48;10.90;;;;;;;;;;5030190;28;20048;-62
2022/03/16 12:15:19;;;;;;;16.92;13.88;;;;;;;;;;5029906;28;20045;-62
2022/03/16 12:17:52;;;;;;;17.23;13.45;;;;;;;;;;5011111;28;20046;-62
2022/03/16 12:20:28;;;;;;;16.65;13.07;;;;;;;;;;5029267;28;20466;-62
2022/03/16 12:22:55;;;;;;;15.70;11.68;;;;;;;;;;5029606;28;20128;-62
2022/03/16 12:25:26;;;;;;;13.10;10.50;;;;;;;;;;5029064;28;20041;-63
2022/03/16 12:30:42;;;;;;;15.10;11.52;;;;;;;;;;5030476;28;20747;-63
2022/03/16 12:33:12;;;;;;;12.95;11.32;;;;;;;;;;5030493;28;20037;-63
2022/03/16 12:35:38;;;;;;;11.10;8.98;;;;;;;;;;5030344;28;20380;-63
2022/03/16 12:38:11;;;;;;;13.73;10.77;;;;;;;;;;5045364;28;20042;-63
2022/03/16 12:42:31;;;;;;;11.27;8.32;;;;;;;;;;5029078;28;20048;-63
2022/03/16 12:43:30;;;;;;;10.68;8.10;;;;;;;;;;5029799;28;20045;-63
2022/03/16 12:46:15;;;;;;;12.00;9.27;;;;;;;;;;5030337;28;20037;-63
2022/03/16 12:48:41;;;;;;;11.73;9.82;;;;;;;;;;5028868;28;20057;-63
2022/03/16 12:51:07;;;;;;;13.98;8.70;;;;;;;;;;5029861;28;20487;-64
2022/03/16 12:53:44;;;;;;;12.80;9.70;;;;;;;;;;5027929;28;20049;-63
2022/03/16 12:56:11;;;;;;;11.30;8.88;;;;;;;;;;5029992;28;20052;-62
2022/03/16 12:58:38;;;;;;;11.77;7.93;;;;;;;;;;5030745;28;20117;-63
2022/03/16 13:01:04;;;;;;;14.27;10.02;;;;;;;;;;5030284;28;20625;-63
2022/03/16 13:03:30;;;;;;;10.75;9.07;;;;;;;;;;5028699;28;20041;-62
2022/03/16 13:05:57;;;;;;;14.32;9.68;;;;;;;;;;5029907;28;20120;-63
2022/03/16 13:08:25;;;;;;;12.02;8.98;;;;;;;;;;5026846;28;20045;-63
2022/03/16 13:11:17;;;;;;;10.07;7.28;;;;;;;;;;5027323;28;20103;-63
2022/03/16 13:13:46;;;;;;;13.10;8.30;;;;;;;;;;5029255;28;20037;-63
2022/03/16 13:16:29;;;;;;;14.10;10.40;;;;;;;;;;5010815;28;20538;-62
2022/03/16 13:18:55;;;;;;;8.33;5.77;;;;;;;;;;5028329;28;20063;-63
2022/03/16 13:21:25;;;;;;;11.75;8.43;;;;;;;;;;5029161;28;20045;-65
2022/03/16 13:24:11;;;;;;;12.65;9.10;;;;;;;;;;5028829;28;20053;-64
2022/03/16 13:26:38;;;;;;;12.52;9.25;;;;;;;;;;5044480;28;20129;-62
2022/03/16 13:29:09;;;;;;;10.90;8.52;;;;;;;;;;5029270;28;20041;-63
2022/03/16 13:31:36;;;;;;;11.20;9.43;;;;;;;;;;5028829;28;20045;-64
2022/03/16 13:34:03;;;;;;;12.52;9.60;;;;;;;;;;5027141;28;20045;-63
2022/03/16 13:36:32;;;;;;;12.70;9.13;;;;;;;;;;5026671;28;20440;-62
2022/03/16 13:38:59;;;;;;;12.57;7.05;;;;;;;;;;5027751;28;20051;-63
2022/03/16 13:41:25;;;;;;;13.25;9.45;;;;;;;;;;5027201;28;20380;-63
2022/03/16 13:44:05;;;;;;;14.07;10.55;;;;;;;;;;5029982;28;20495;-63
2022/03/16 13:46:38;;;;;;;13.48;9.73;;;;;;;;;;5042128;28;20080;-63
2022/03/16 13:49:04;;;;;;;;;;;;;;;;;;5028050;28;20128;-63
2022/03/16 13:51:34;;;;;;;13.75;10.57;;;;;;;;;;5026336;28;19921;-63
2022/03/16 13:54:03;;;;;;;15.10;11.10;;;;;;;;;;5027427;28;20491;-63
2022/03/16 13:56:29;;;;;;;13.55;11.18;;;;;;;;;;5028861;28;20052;-64
2022/03/16 13:58:55;;;;;;;12.48;9.10;;;;;;;;;;5025115;28;20033;-63
2022/03/16 14:01:22;;;;;;;11.73;8.15;;;;;;;;;;5027490;28;20502;-63
2022/03/16 14:03:49;;;;;;;11.73;9.25;;;;;;;;;;5027401;28;20041;-62
2022/03/16 14:06:15;;;;;;;13.20;11.10;;;;;;;;;;5025550;28;20187;-63
2022/03/16 14:08:41;;;;;;;12.77;10.23;;;;;;;;;;5026758;28;20052;-62
2022/03/16 14:11:08;;;;;;;13.70;10.73;;;;;;;;;;5028424;28;20128;-62
2022/03/16 14:13:42;;;;;;;17.65;12.63;;;;;;;;;;5027617;28;20518;-62
2022/03/16 14:16:13;;;;;;;16.60;12.32;;;;;;;;;;5022863;28;20056;-62
2022/03/16 14:18:39;;;;;;;16.58;10.25;;;;;;;;;;5028602;28;20053;-61
2022/03/16 14:21:08;;;;;;;16.10;12.30;;;;;;;;;;5027756;28;20166;-62
2022/03/16 14:23:34;;;;;;;15.43;12.80;;;;;;;;;;5028133;28;20055;-61
2022/03/16 14:26:01;;;;;;;16.95;13.57;;;;;;;;;;5023924;28;20691;-61
2022/03/16 14:28:28;;;;;;;12.05;8.27;;;;;;;;;;5010232;28;20042;-63
2022/03/16 14:30:54;;;;;;;18.45;14.00;;;;;;;;;;5010389;28;20038;-62
2022/03/16 14:33:29;;;;;;;15.45;11.60;;;;;;;;;;5009334;28;20099;-63
2022/03/16 14:35:57;;;;;;;17.83;13.45;;;;;;;;;;5009273;28;20044;-62
2022/03/16 14:38:23;;;;;;;18.63;14.25;;;;;;;;;;5010210;28;20046;-61
2022/03/16 14:40:56;;;;;;;17.70;13.00;;;;;;;;;;5008991;28;20046;-60